Terminal Aerodrome Forecast
Issued by NWS

Home | Current Version | Previous Version | Text Only | Print | Product List | Glossary On
Versions: 1 2 3 4 5 6 7 8 9 10 11 12 13 14 15
000
FTUS43 KILX 021700
TAFCMI
TAF
KCMI 021735Z 0218/0318 VRB04KT P6SM SCT100 BKN200
     FM030500 14010KT P6SM OVC090
     FM031000 15013KT 6SM -FZRAPL BR SCT012 OVC025
     FM031600 17015KT P6SM OVC025
      TEMPO 0316/0318 P6SM -RA OVC020=

USA.gov is the U.S. government's official web portal to all federal, state and local government web resources and services.